THY628 LTFM-HECA
Flight info
| Callsign | THY628 |
|---|---|
| Flight time | 1h 40m |
| Altitude | 39000 |
| Route | RATVU1E/36 RATVU UT35 AYT UM855 TOMBI M855 RASDA A16 CVO |
| Aircraft | B77W/H-SDE1E2E3FGHIJ2J3J4J5M1RWXY/LB1D1 |
Departure
| Time | 2026-05-05 15:01 |
|---|---|
| Airport | İstanbul Airport (LTFM) |
Arrival
| Time | 2026-05-05 16:42 |
|---|---|
| Airport | Cairo International Airport (HECA) |
| Time | Latitude | Longitude | Altitude | Speed | Heading |
|---|---|---|---|---|---|
| 2026-05-05 14:23 | 41.26730 | 28.74365 | 318 ft | 0 kts | 269° |
| 2026-05-05 14:51 | 41.26731 | 28.74394 | 317 ft | 4 kts | 267° |
| 2026-05-05 14:51 | 41.26732 | 28.74430 | 316 ft | 4 kts | 267° |
| 2026-05-05 14:51 | 41.26732 | 28.74460 | 316 ft | 4 kts | 303° |
| 2026-05-05 14:52 | 41.26715 | 28.74469 | 315 ft | 4 kts | 8° |
| 2026-05-05 14:52 | 41.26689 | 28.74465 | 317 ft | 2 kts | 359° |
| 2026-05-05 14:52 | 41.26683 | 28.74465 | 317 ft | 0 kts | 359° |
| 2026-05-05 14:55 | 41.26690 | 28.74465 | 318 ft | 5 kts | 359° |
| 2026-05-05 14:56 | 41.26770 | 28.74462 | 318 ft | 12 kts | 359° |
| 2026-05-05 14:56 | 41.26847 | 28.74461 | 318 ft | 11 kts | 359° |
| 2026-05-05 14:56 | 41.26925 | 28.74460 | 318 ft | 11 kts | 2° |
| 2026-05-05 14:56 | 41.26967 | 28.74530 | 317 ft | 11 kts | 83° |
| 2026-05-05 14:57 | 41.26970 | 28.74650 | 317 ft | 16 kts | 90° |
| 2026-05-05 14:57 | 41.26972 | 28.74834 | 317 ft | 23 kts | 89° |
| 2026-05-05 14:57 | 41.26975 | 28.75042 | 317 ft | 21 kts | 89° |
| 2026-05-05 14:57 | 41.26977 | 28.75213 | 312 ft | 18 kts | 89° |
| 2026-05-05 14:58 | 41.26956 | 28.75347 | 315 ft | 13 kts | 144° |
| 2026-05-05 14:58 | 41.26869 | 28.75372 | 315 ft | 13 kts | 176° |
| 2026-05-05 14:58 | 41.26766 | 28.75376 | 315 ft | 16 kts | 179° |
| 2026-05-05 14:58 | 41.26645 | 28.75376 | 316 ft | 19 kts | 180° |
| 2026-05-05 14:59 | 41.26504 | 28.75376 | 317 ft | 22 kts | 179° |
| 2026-05-05 14:59 | 41.26356 | 28.75382 | 318 ft | 19 kts | 179° |
| 2026-05-05 14:59 | 41.26262 | 28.75405 | 319 ft | 10 kts | 138° |
| 2026-05-05 14:59 | 41.26244 | 28.75487 | 319 ft | 9 kts | 91° |
| 2026-05-05 15:00 | 41.26244 | 28.75567 | 319 ft | 9 kts | 90° |
| 2026-05-05 15:00 | 41.26246 | 28.75622 | 320 ft | 8 kts | 77° |
| 2026-05-05 15:00 | 41.26297 | 28.75664 | 320 ft | 6 kts | 5° |
| 2026-05-05 15:00 | 41.26325 | 28.75666 | 320 ft | 14 kts | 3° |
| 2026-05-05 15:01 | 41.26551 | 28.75663 | 317 ft | 60 kts | 359° |
| 2026-05-05 15:01 | 41.27255 | 28.75654 | 301 ft | 139 kts | 359° |
| 2026-05-05 15:01 | 41.28418 | 28.75647 | 451 ft | 183 kts | 1° |
| 2026-05-05 15:01 | 41.29731 | 28.75699 | 1161 ft | 190 kts | 6° |
| 2026-05-05 15:02 | 41.30968 | 28.76225 | 2040 ft | 189 kts | 32° |
| 2026-05-05 15:02 | 41.31976 | 28.77338 | 2949 ft | 189 kts | 37° |
| 2026-05-05 15:02 | 41.33044 | 28.78387 | 3777 ft | 193 kts | 31° |
| 2026-05-05 15:02 | 41.34213 | 28.79356 | 4518 ft | 203 kts | 28° |
| 2026-05-05 15:03 | 41.35443 | 28.80314 | 5307 ft | 210 kts | 27° |
| 2026-05-05 15:03 | 41.36715 | 28.81357 | 6002 ft | 225 kts | 36° |
| 2026-05-05 15:03 | 41.37771 | 28.83103 | 6382 ft | 258 kts | 58° |
| 2026-05-05 15:03 | 41.38459 | 28.85352 | 7226 ft | 270 kts | 75° |
| 2026-05-05 15:04 | 41.38533 | 28.87857 | 8111 ft | 279 kts | 87° |
| 2026-05-05 15:04 | 41.38488 | 28.89615 | 8720 ft | 282 kts | 90° |
| 2026-05-05 15:04 | 41.37504 | 28.92899 | 9912 ft | 305 kts | 128° |
| 2026-05-05 15:04 | 41.35745 | 28.94571 | 10700 ft | 324 kts | 157° |
| 2026-05-05 15:05 | 41.30880 | 28.95036 | 11263 ft | 384 kts | 183° |
| 2026-05-05 15:05 | 41.28146 | 28.94917 | 11927 ft | 399 kts | 181° |
| 2026-05-05 15:05 | 41.26251 | 28.94889 | 12538 ft | 405 kts | 180° |
| 2026-05-05 15:06 | 41.23408 | 28.94831 | 13576 ft | 411 kts | 182° |
| 2026-05-05 15:06 | 41.20585 | 28.94587 | 14549 ft | 416 kts | 185° |
| 2026-05-05 15:06 | 41.17691 | 28.94261 | 15575 ft | 418 kts | 185° |
| 2026-05-05 15:06 | 41.14791 | 28.93936 | 16671 ft | 419 kts | 185° |
| 2026-05-05 15:07 | 41.11875 | 28.93632 | 17698 ft | 423 kts | 185° |
| 2026-05-05 15:07 | 41.08920 | 28.93345 | 18580 ft | 428 kts | 185° |
| 2026-05-05 15:07 | 41.05924 | 28.93066 | 19409 ft | 433 kts | 184° |
| 2026-05-05 15:07 | 41.02907 | 28.92788 | 20238 ft | 437 kts | 184° |
| 2026-05-05 15:08 | 40.99863 | 28.92476 | 21064 ft | 441 kts | 185° |
| 2026-05-05 15:08 | 40.96791 | 28.92086 | 21870 ft | 445 kts | 186° |
| 2026-05-05 15:08 | 40.93694 | 28.91673 | 22658 ft | 450 kts | 186° |
| 2026-05-05 15:08 | 40.90562 | 28.91267 | 23421 ft | 454 kts | 186° |
| 2026-05-05 15:09 | 40.87399 | 28.90878 | 24089 ft | 459 kts | 184° |
| 2026-05-05 15:09 | 40.84200 | 28.90820 | 24684 ft | 462 kts | 178° |
| 2026-05-05 15:09 | 40.80978 | 28.91100 | 25296 ft | 466 kts | 175° |
| 2026-05-05 15:09 | 40.77725 | 28.91487 | 25806 ft | 472 kts | 174° |
| 2026-05-05 15:10 | 40.74440 | 28.91865 | 26399 ft | 476 kts | 175° |
| 2026-05-05 15:10 | 40.71129 | 28.92195 | 27027 ft | 478 kts | 176° |
| 2026-05-05 15:10 | 40.67797 | 28.92482 | 27648 ft | 481 kts | 176° |
| 2026-05-05 15:10 | 40.64445 | 28.92746 | 28205 ft | 484 kts | 176° |
| 2026-05-05 15:11 | 40.61069 | 28.93009 | 28734 ft | 488 kts | 176° |
| 2026-05-05 15:11 | 40.57667 | 28.93294 | 29196 ft | 489 kts | 174° |
| 2026-05-05 15:11 | 40.54324 | 28.94230 | 29498 ft | 495 kts | 158° |
| 2026-05-05 15:11 | 40.51327 | 28.96434 | 29887 ft | 492 kts | 144° |
| 2026-05-05 15:12 | 40.48523 | 28.99039 | 30300 ft | 495 kts | 144° |
| 2026-05-05 15:12 | 40.45678 | 29.01581 | 30778 ft | 494 kts | 146° |
| 2026-05-05 15:12 | 40.42812 | 29.04065 | 31333 ft | 493 kts | 146° |
| 2026-05-05 15:12 | 40.39941 | 29.06511 | 31825 ft | 492 kts | 147° |
| 2026-05-05 15:13 | 40.37101 | 29.08915 | 32229 ft | 494 kts | 147° |
| 2026-05-05 15:13 | 40.34201 | 29.11366 | 32525 ft | 498 kts | 147° |
| 2026-05-05 15:13 | 40.31291 | 29.13828 | 32992 ft | 497 kts | 147° |
| 2026-05-05 15:13 | 40.28394 | 29.16282 | 33536 ft | 495 kts | 147° |
| 2026-05-05 15:14 | 40.25503 | 29.18732 | 34038 ft | 494 kts | 147° |
| 2026-05-05 15:14 | 40.22617 | 29.21176 | 34393 ft | 495 kts | 147° |
| 2026-05-05 15:14 | 40.19723 | 29.23621 | 34708 ft | 496 kts | 147° |
| 2026-05-05 15:14 | 40.16705 | 29.25811 | 35052 ft | 495 kts | 157° |
| 2026-05-05 15:15 | 40.13490 | 29.27390 | 35490 ft | 493 kts | 162° |
| 2026-05-05 15:15 | 40.10217 | 29.28803 | 35674 ft | 498 kts | 163° |
| 2026-05-05 15:15 | 40.06919 | 29.30218 | 35934 ft | 500 kts | 162° |
| 2026-05-05 15:15 | 40.03627 | 29.31689 | 36280 ft | 500 kts | 161° |
| 2026-05-05 15:16 | 40.00355 | 29.33210 | 36621 ft | 500 kts | 161° |
| 2026-05-05 15:16 | 39.97084 | 29.34766 | 36936 ft | 500 kts | 161° |
| 2026-05-05 15:16 | 39.93818 | 29.36323 | 37200 ft | 501 kts | 161° |
| 2026-05-05 15:16 | 39.90538 | 29.37880 | 37487 ft | 502 kts | 160° |
| 2026-05-05 15:17 | 39.87286 | 29.39546 | 37753 ft | 503 kts | 158° |
| 2026-05-05 15:17 | 39.84062 | 29.41327 | 38031 ft | 503 kts | 157° |
| 2026-05-05 15:17 | 39.80852 | 29.43145 | 38319 ft | 503 kts | 157° |
| 2026-05-05 15:17 | 39.77635 | 29.44959 | 38590 ft | 504 kts | 157° |
| 2026-05-05 15:18 | 39.74419 | 29.46750 | 38909 ft | 502 kts | 158° |
| 2026-05-05 15:18 | 39.71211 | 29.48514 | 39109 ft | 502 kts | 158° |
| 2026-05-05 15:18 | 39.67981 | 29.50279 | 39059 ft | 503 kts | 158° |
| 2026-05-05 15:19 | 39.61536 | 29.53760 | 39058 ft | 500 kts | 159° |
| 2026-05-05 15:19 | 39.55073 | 29.56994 | 39063 ft | 497 kts | 160° |
| 2026-05-05 15:20 | 39.48621 | 29.60162 | 39063 ft | 495 kts | 160° |
| 2026-05-05 15:20 | 39.42193 | 29.63346 | 39060 ft | 495 kts | 160° |
| 2026-05-05 15:21 | 39.35759 | 29.66548 | 39059 ft | 496 kts | 160° |
| 2026-05-05 15:21 | 39.29309 | 29.69756 | 39064 ft | 497 kts | 160° |
| 2026-05-05 15:22 | 39.22848 | 29.72962 | 39058 ft | 499 kts | 160° |
| 2026-05-05 15:22 | 39.16365 | 29.76171 | 39057 ft | 500 kts | 160° |
| 2026-05-05 15:23 | 39.09907 | 29.79361 | 39055 ft | 501 kts | 160° |
| 2026-05-05 15:23 | 39.03386 | 29.82576 | 39052 ft | 501 kts | 160° |
| 2026-05-05 15:24 | 38.96873 | 29.85781 | 39037 ft | 501 kts | 160° |
| 2026-05-05 15:24 | 38.90360 | 29.88980 | 39047 ft | 501 kts | 160° |
| 2026-05-05 15:25 | 38.83839 | 29.92133 | 39049 ft | 500 kts | 161° |
| 2026-05-05 15:25 | 38.77309 | 29.95220 | 39043 ft | 500 kts | 161° |
| 2026-05-05 15:26 | 38.70780 | 29.98305 | 39032 ft | 500 kts | 161° |
| 2026-05-05 15:26 | 38.64249 | 30.01397 | 39035 ft | 500 kts | 161° |
| 2026-05-05 15:27 | 38.57734 | 30.04479 | 39039 ft | 499 kts | 161° |
| 2026-05-05 15:27 | 38.51218 | 30.07554 | 39021 ft | 499 kts | 161° |
| 2026-05-05 15:28 | 38.44710 | 30.10619 | 39035 ft | 498 kts | 161° |
| 2026-05-05 15:28 | 38.38244 | 30.13659 | 39037 ft | 498 kts | 161° |
| 2026-05-05 15:29 | 38.31734 | 30.16703 | 39033 ft | 498 kts | 162° |
| 2026-05-05 15:29 | 38.25210 | 30.19661 | 39031 ft | 498 kts | 162° |
| 2026-05-05 15:30 | 38.18693 | 30.22642 | 39047 ft | 498 kts | 161° |
| 2026-05-05 15:30 | 38.12184 | 30.25643 | 39051 ft | 498 kts | 161° |
| 2026-05-05 15:31 | 38.05658 | 30.28641 | 39026 ft | 498 kts | 162° |
| 2026-05-05 15:31 | 37.99134 | 30.31623 | 39038 ft | 498 kts | 162° |
| 2026-05-05 15:32 | 37.92601 | 30.34580 | 39056 ft | 498 kts | 162° |
| 2026-05-05 15:32 | 37.86074 | 30.37523 | 39043 ft | 498 kts | 162° |
| 2026-05-05 15:33 | 37.79543 | 30.40468 | 39063 ft | 498 kts | 162° |
| 2026-05-05 15:33 | 37.73010 | 30.43409 | 39042 ft | 499 kts | 162° |
| 2026-05-05 15:34 | 37.66518 | 30.46328 | 39037 ft | 499 kts | 162° |
| 2026-05-05 15:34 | 37.59977 | 30.49262 | 39011 ft | 498 kts | 162° |
| 2026-05-05 15:35 | 37.53451 | 30.52185 | 39008 ft | 498 kts | 162° |
| 2026-05-05 15:35 | 37.46915 | 30.55107 | 38999 ft | 498 kts | 162° |
| 2026-05-05 15:36 | 37.40373 | 30.58025 | 38994 ft | 499 kts | 162° |
| 2026-05-05 15:36 | 37.33818 | 30.60944 | 38977 ft | 500 kts | 162° |
| 2026-05-05 15:37 | 37.27260 | 30.63859 | 38978 ft | 501 kts | 162° |
| 2026-05-05 15:37 | 37.20690 | 30.66774 | 38973 ft | 501 kts | 162° |
| 2026-05-05 15:38 | 37.14104 | 30.69691 | 38970 ft | 502 kts | 163° |
| 2026-05-05 15:38 | 37.07510 | 30.72607 | 38950 ft | 502 kts | 163° |
| 2026-05-05 15:39 | 37.00922 | 30.75515 | 38958 ft | 502 kts | 163° |
| 2026-05-05 15:39 | 36.94303 | 30.78266 | 38964 ft | 500 kts | 169° |
| 2026-05-05 15:40 | 36.87476 | 30.79662 | 38946 ft | 495 kts | 180° |
| 2026-05-05 15:40 | 36.80625 | 30.79891 | 38957 ft | 492 kts | 182° |
| 2026-05-05 15:41 | 36.73777 | 30.80066 | 38965 ft | 492 kts | 182° |
| 2026-05-05 15:41 | 36.66977 | 30.80290 | 38965 ft | 492 kts | 182° |
| 2026-05-05 15:42 | 36.60137 | 30.80537 | 38957 ft | 492 kts | 182° |
| 2026-05-05 15:42 | 36.53296 | 30.80784 | 38962 ft | 492 kts | 182° |
| 2026-05-05 15:43 | 36.46453 | 30.81028 | 38968 ft | 492 kts | 182° |
| 2026-05-05 15:43 | 36.39607 | 30.81269 | 38973 ft | 492 kts | 182° |
| 2026-05-05 15:44 | 36.32760 | 30.81489 | 38965 ft | 492 kts | 182° |
| 2026-05-05 15:44 | 36.25909 | 30.81704 | 38973 ft | 492 kts | 182° |
| 2026-05-05 15:45 | 36.19065 | 30.81922 | 38965 ft | 492 kts | 182° |
| 2026-05-05 15:45 | 36.12221 | 30.82141 | 38975 ft | 492 kts | 182° |
| 2026-05-05 15:46 | 36.05374 | 30.82359 | 38981 ft | 492 kts | 182° |
| 2026-05-05 15:46 | 35.98528 | 30.82681 | 38970 ft | 493 kts | 181° |
| 2026-05-05 15:47 | 35.91729 | 30.83136 | 38983 ft | 492 kts | 181° |
| 2026-05-05 15:47 | 35.84888 | 30.83582 | 38987 ft | 492 kts | 181° |
| 2026-05-05 15:48 | 35.78050 | 30.84003 | 38969 ft | 492 kts | 181° |
| 2026-05-05 15:48 | 35.71213 | 30.84419 | 38983 ft | 491 kts | 181° |
| 2026-05-05 15:49 | 35.64385 | 30.84836 | 38992 ft | 491 kts | 181° |
| 2026-05-05 15:49 | 35.57554 | 30.85196 | 38979 ft | 491 kts | 182° |
| 2026-05-05 15:50 | 35.50728 | 30.85407 | 38994 ft | 490 kts | 183° |
| 2026-05-05 15:50 | 35.43907 | 30.85612 | 38995 ft | 490 kts | 183° |
| 2026-05-05 15:51 | 35.37086 | 30.85840 | 38994 ft | 491 kts | 183° |
| 2026-05-05 15:51 | 35.30265 | 30.86075 | 38992 ft | 490 kts | 183° |
| 2026-05-05 15:52 | 35.23444 | 30.86308 | 39000 ft | 490 kts | 183° |
| 2026-05-05 15:52 | 35.16627 | 30.86539 | 39003 ft | 490 kts | 183° |
| 2026-05-05 15:53 | 35.09809 | 30.86761 | 38997 ft | 490 kts | 183° |
| 2026-05-05 15:53 | 35.04145 | 30.86941 | 39003 ft | 490 kts | 183° |
| 2026-05-05 15:54 | 34.97327 | 30.87159 | 39003 ft | 490 kts | 183° |
| 2026-05-05 15:54 | 34.90515 | 30.87378 | 38990 ft | 490 kts | 183° |
| 2026-05-05 15:55 | 34.83704 | 30.87597 | 39002 ft | 489 kts | 183° |
| 2026-05-05 15:55 | 34.76904 | 30.87815 | 39008 ft | 488 kts | 183° |
| 2026-05-05 15:56 | 34.70113 | 30.88032 | 39013 ft | 488 kts | 183° |
| 2026-05-05 15:56 | 34.63331 | 30.88248 | 39008 ft | 487 kts | 184° |
| 2026-05-05 15:57 | 34.56569 | 30.88523 | 39008 ft | 486 kts | 182° |
| 2026-05-05 15:57 | 34.49811 | 30.88890 | 39012 ft | 486 kts | 182° |
| 2026-05-05 15:58 | 34.43063 | 30.89250 | 39017 ft | 485 kts | 183° |
| 2026-05-05 15:58 | 34.36324 | 30.89592 | 39015 ft | 485 kts | 183° |
| 2026-05-05 15:59 | 34.29585 | 30.89932 | 39014 ft | 485 kts | 183° |
| 2026-05-05 15:59 | 34.22846 | 30.90275 | 39019 ft | 485 kts | 183° |
| 2026-05-05 16:00 | 34.16110 | 30.90646 | 39025 ft | 485 kts | 183° |
| 2026-05-05 16:00 | 34.09394 | 30.91022 | 39026 ft | 486 kts | 183° |
| 2026-05-05 16:01 | 34.02637 | 30.91396 | 39025 ft | 486 kts | 183° |
| 2026-05-05 16:01 | 33.95883 | 30.91768 | 39013 ft | 486 kts | 183° |
| 2026-05-05 16:02 | 33.89136 | 30.92071 | 39021 ft | 485 kts | 184° |
| 2026-05-05 16:02 | 33.82398 | 30.92305 | 39025 ft | 484 kts | 184° |
| 2026-05-05 16:03 | 33.75662 | 30.92544 | 39013 ft | 484 kts | 184° |
| 2026-05-05 16:03 | 33.68937 | 30.92794 | 39023 ft | 483 kts | 184° |
| 2026-05-05 16:04 | 33.62212 | 30.93048 | 39030 ft | 483 kts | 184° |
| 2026-05-05 16:04 | 33.55489 | 30.93301 | 39001 ft | 483 kts | 185° |
| 2026-05-05 16:05 | 33.48826 | 30.93552 | 39023 ft | 482 kts | 185° |
| 2026-05-05 16:05 | 33.42124 | 30.93803 | 39031 ft | 482 kts | 185° |
| 2026-05-05 16:06 | 33.35428 | 30.94053 | 39039 ft | 481 kts | 185° |
| 2026-05-05 16:06 | 33.28744 | 30.94302 | 39042 ft | 480 kts | 185° |
| 2026-05-05 16:07 | 33.22055 | 30.94552 | 39037 ft | 480 kts | 185° |
| 2026-05-05 16:07 | 33.15391 | 30.94800 | 39042 ft | 480 kts | 185° |
| 2026-05-05 16:08 | 33.08710 | 30.95104 | 39011 ft | 482 kts | 182° |
| 2026-05-05 16:08 | 33.02039 | 30.95828 | 39039 ft | 482 kts | 181° |
| 2026-05-05 16:09 | 32.95370 | 30.96614 | 39045 ft | 481 kts | 181° |
| 2026-05-05 16:09 | 32.88709 | 30.97379 | 39053 ft | 481 kts | 182° |
| 2026-05-05 16:10 | 32.82052 | 30.98124 | 39042 ft | 480 kts | 182° |
| 2026-05-05 16:10 | 32.75412 | 30.98861 | 39048 ft | 479 kts | 182° |
| 2026-05-05 16:11 | 32.68780 | 30.99596 | 39058 ft | 479 kts | 182° |
| 2026-05-05 16:12 | 32.55810 | 31.01033 | 39058 ft | 479 kts | 182° |
| 2026-05-05 16:13 | 32.39258 | 31.02861 | 39067 ft | 479 kts | 182° |
| 2026-05-05 16:13 | 32.32623 | 31.03593 | 39055 ft | 478 kts | 182° |
| 2026-05-05 16:14 | 32.19372 | 31.05049 | 39068 ft | 478 kts | 182° |
| 2026-05-05 16:15 | 32.06121 | 31.06500 | 38665 ft | 485 kts | 183° |
| 2026-05-05 16:16 | 31.99366 | 31.07237 | 37219 ft | 486 kts | 182° |
| 2026-05-05 16:16 | 31.92635 | 31.07977 | 35820 ft | 485 kts | 183° |
| 2026-05-05 16:17 | 31.85892 | 31.08713 | 34457 ft | 484 kts | 183° |
| 2026-05-05 16:17 | 31.82550 | 31.09080 | 33896 ft | 481 kts | 183° |
| 2026-05-05 16:18 | 31.75964 | 31.09801 | 32756 ft | 475 kts | 183° |
| 2026-05-05 16:18 | 31.72691 | 31.10158 | 32238 ft | 471 kts | 183° |
| 2026-05-05 16:18 | 31.66217 | 31.10861 | 31208 ft | 464 kts | 183° |
| 2026-05-05 16:19 | 31.63011 | 31.11207 | 30671 ft | 461 kts | 183° |
| 2026-05-05 16:19 | 31.59869 | 31.11547 | 30196 ft | 458 kts | 183° |
| 2026-05-05 16:19 | 31.53551 | 31.12233 | 29084 ft | 452 kts | 182° |
| 2026-05-05 16:20 | 31.47334 | 31.13273 | 28079 ft | 449 kts | 179° |
| 2026-05-05 16:20 | 31.41200 | 31.14445 | 27077 ft | 443 kts | 179° |
| 2026-05-05 16:21 | 31.35148 | 31.15575 | 26086 ft | 437 kts | 179° |
| 2026-05-05 16:22 | 31.26216 | 31.17213 | 24669 ft | 430 kts | 178° |
| 2026-05-05 16:22 | 31.20329 | 31.18300 | 23704 ft | 427 kts | 178° |
| 2026-05-05 16:23 | 31.14486 | 31.19396 | 22602 ft | 423 kts | 178° |
| 2026-05-05 16:23 | 31.11592 | 31.19940 | 22146 ft | 419 kts | 178° |
| 2026-05-05 16:23 | 31.05877 | 31.21010 | 21213 ft | 413 kts | 178° |
| 2026-05-05 16:24 | 31.03284 | 31.21494 | 20800 ft | 411 kts | 178° |
| 2026-05-05 16:24 | 31.00479 | 31.22017 | 20336 ft | 409 kts | 178° |
| 2026-05-05 16:24 | 30.94873 | 31.23059 | 19424 ft | 405 kts | 177° |
| 2026-05-05 16:25 | 30.92089 | 31.23577 | 18963 ft | 404 kts | 177° |
| 2026-05-05 16:25 | 30.86560 | 31.24605 | 18090 ft | 399 kts | 176° |
| 2026-05-05 16:25 | 30.83823 | 31.25114 | 17626 ft | 397 kts | 176° |
| 2026-05-05 16:26 | 30.78404 | 31.26120 | 16714 ft | 392 kts | 176° |
| 2026-05-05 16:26 | 30.73040 | 31.27114 | 15787 ft | 389 kts | 176° |
| 2026-05-05 16:27 | 30.70367 | 31.27608 | 15249 ft | 389 kts | 175° |
| 2026-05-05 16:27 | 30.67692 | 31.28102 | 14744 ft | 389 kts | 175° |
| 2026-05-05 16:27 | 30.65020 | 31.28597 | 14291 ft | 387 kts | 175° |
| 2026-05-05 16:27 | 30.62368 | 31.29088 | 13887 ft | 384 kts | 175° |
| 2026-05-05 16:28 | 30.59739 | 31.29575 | 13437 ft | 381 kts | 175° |
| 2026-05-05 16:28 | 30.57123 | 31.30058 | 12902 ft | 381 kts | 175° |
| 2026-05-05 16:28 | 30.54510 | 31.30540 | 12396 ft | 380 kts | 174° |
| 2026-05-05 16:28 | 30.51901 | 31.31022 | 11929 ft | 378 kts | 174° |
| 2026-05-05 16:29 | 30.49344 | 31.31494 | 11486 ft | 376 kts | 174° |
| 2026-05-05 16:29 | 30.46770 | 31.31968 | 11027 ft | 371 kts | 174° |
| 2026-05-05 16:29 | 30.44295 | 31.32425 | 10650 ft | 348 kts | 174° |
| 2026-05-05 16:29 | 30.41987 | 31.32698 | 10496 ft | 318 kts | 186° |
| 2026-05-05 16:30 | 30.39862 | 31.32430 | 10384 ft | 300 kts | 193° |
| 2026-05-05 16:30 | 30.37835 | 31.32019 | 10258 ft | 292 kts | 194° |
| 2026-05-05 16:30 | 30.35867 | 31.31589 | 10146 ft | 284 kts | 194° |
| 2026-05-05 16:30 | 30.33946 | 31.31166 | 10012 ft | 277 kts | 194° |
| 2026-05-05 16:31 | 30.32053 | 31.30744 | 9720 ft | 278 kts | 194° |
| 2026-05-05 16:31 | 30.30138 | 31.30310 | 9424 ft | 283 kts | 194° |
| 2026-05-05 16:31 | 30.28191 | 31.29862 | 9128 ft | 285 kts | 195° |
| 2026-05-05 16:31 | 30.26251 | 31.29409 | 8808 ft | 284 kts | 194° |
| 2026-05-05 16:32 | 30.24326 | 31.28958 | 8509 ft | 281 kts | 195° |
| 2026-05-05 16:32 | 30.22410 | 31.28508 | 8198 ft | 280 kts | 195° |
| 2026-05-05 16:32 | 30.20508 | 31.28057 | 7897 ft | 278 kts | 194° |
| 2026-05-05 16:32 | 30.18620 | 31.27596 | 7595 ft | 277 kts | 195° |
| 2026-05-05 16:33 | 30.16741 | 31.27139 | 7310 ft | 275 kts | 195° |
| 2026-05-05 16:33 | 30.14902 | 31.26613 | 6986 ft | 268 kts | 204° |
| 2026-05-05 16:33 | 30.13261 | 31.25643 | 6705 ft | 264 kts | 213° |
| 2026-05-05 16:33 | 30.11694 | 31.24545 | 6416 ft | 263 kts | 213° |
| 2026-05-05 16:34 | 30.10148 | 31.23432 | 6112 ft | 261 kts | 214° |
| 2026-05-05 16:34 | 30.08627 | 31.22343 | 5810 ft | 261 kts | 215° |
| 2026-05-05 16:34 | 30.07053 | 31.21242 | 5514 ft | 260 kts | 215° |
| 2026-05-05 16:34 | 30.05506 | 31.20158 | 5224 ft | 259 kts | 214° |
| 2026-05-05 16:35 | 30.03962 | 31.19097 | 4936 ft | 258 kts | 213° |
| 2026-05-05 16:35 | 30.02424 | 31.18031 | 4648 ft | 256 kts | 214° |
| 2026-05-05 16:35 | 30.00899 | 31.17022 | 4415 ft | 249 kts | 206° |
| 2026-05-05 16:35 | 29.99215 | 31.16703 | 4069 ft | 255 kts | 176° |
| 2026-05-05 16:36 | 29.97569 | 31.17411 | 3785 ft | 255 kts | 144° |
| 2026-05-05 16:36 | 29.96258 | 31.18785 | 3523 ft | 249 kts | 135° |
| 2026-05-05 16:36 | 29.95093 | 31.20223 | 3243 ft | 242 kts | 123° |
| 2026-05-05 16:36 | 29.94557 | 31.21964 | 3087 ft | 229 kts | 89° |
| 2026-05-05 16:37 | 29.94915 | 31.23697 | 3026 ft | 221 kts | 52° |
| 2026-05-05 16:37 | 29.95979 | 31.24855 | 3016 ft | 203 kts | 28° |
| 2026-05-05 16:37 | 29.97106 | 31.25799 | 2985 ft | 197 kts | 34° |
| 2026-05-05 16:37 | 29.98142 | 31.26853 | 3016 ft | 201 kts | 38° |
| 2026-05-05 16:38 | 29.99160 | 31.27948 | 3000 ft | 199 kts | 40° |
| 2026-05-05 16:38 | 30.00104 | 31.29105 | 2996 ft | 197 kts | 43° |
| 2026-05-05 16:38 | 30.00991 | 31.30271 | 3004 ft | 190 kts | 45° |
| 2026-05-05 16:38 | 30.01861 | 31.31429 | 2764 ft | 189 kts | 45° |
| 2026-05-05 16:39 | 30.02684 | 31.32529 | 2558 ft | 174 kts | 43° |
| 2026-05-05 16:39 | 30.03439 | 31.33543 | 2313 ft | 157 kts | 44° |
| 2026-05-05 16:39 | 30.03902 | 31.34158 | 2198 ft | 148 kts | 45° |
| 2026-05-05 16:39 | 30.04585 | 31.35065 | 1998 ft | 151 kts | 43° |
| 2026-05-05 16:40 | 30.05278 | 31.35972 | 1784 ft | 151 kts | 44° |
| 2026-05-05 16:40 | 30.05962 | 31.36883 | 1615 ft | 151 kts | 43° |
| 2026-05-05 16:40 | 30.06629 | 31.37817 | 1421 ft | 150 kts | 44° |
| 2026-05-05 16:40 | 30.07330 | 31.38691 | 1257 ft | 149 kts | 45° |
| 2026-05-05 16:41 | 30.07995 | 31.39601 | 1078 ft | 148 kts | 42° |
| 2026-05-05 16:41 | 30.08652 | 31.40502 | 835 ft | 149 kts | 43° |
| 2026-05-05 16:41 | 30.09337 | 31.41393 | 658 ft | 147 kts | 45° |
| 2026-05-05 16:41 | 30.10011 | 31.42301 | 471 ft | 145 kts | 45° |
| 2026-05-05 16:42 | 30.10603 | 31.43081 | 466 ft | 116 kts | 49° |
| 2026-05-05 16:42 | 30.11026 | 31.43652 | 469 ft | 68 kts | 49° |
| 2026-05-05 16:42 | 30.11285 | 31.43947 | 467 ft | 42 kts | 32° |
| 2026-05-05 16:42 | 30.11448 | 31.44042 | 461 ft | 15 kts | 24° |
| 2026-05-05 16:43 | 30.11531 | 31.44084 | 459 ft | 11 kts | 22° |
| 2026-05-05 16:43 | 30.11611 | 31.44105 | 455 ft | 13 kts | 360° |
| 2026-05-05 16:43 | 30.11654 | 31.44055 | 452 ft | 10 kts | 265° |
| 2026-05-05 16:43 | 30.11620 | 31.43982 | 451 ft | 11 kts | 233° |
| 2026-05-05 16:44 | 30.11570 | 31.43917 | 451 ft | 13 kts | 228° |
| 2026-05-05 16:44 | 30.11479 | 31.43797 | 451 ft | 25 kts | 230° |
| 2026-05-05 16:44 | 30.11368 | 31.43644 | 451 ft | 25 kts | 230° |
| 2026-05-05 16:44 | 30.11272 | 31.43521 | 452 ft | 15 kts | 228° |
| 2026-05-05 16:45 | 30.11250 | 31.43430 | 450 ft | 14 kts | 298° |
| 2026-05-05 16:45 | 30.11336 | 31.43334 | 434 ft | 21 kts | 319° |
| 2026-05-05 16:45 | 30.11457 | 31.43214 | 422 ft | 25 kts | 319° |
| 2026-05-05 16:45 | 30.11588 | 31.43084 | 416 ft | 21 kts | 319° |
| 2026-05-05 16:46 | 30.11708 | 31.42964 | 408 ft | 25 kts | 319° |
| 2026-05-05 16:46 | 30.11848 | 31.42825 | 396 ft | 28 kts | 319° |
| 2026-05-05 16:46 | 30.11998 | 31.42677 | 388 ft | 26 kts | 320° |
| 2026-05-05 16:46 | 30.12123 | 31.42550 | 383 ft | 24 kts | 319° |
| 2026-05-05 16:47 | 30.12195 | 31.42413 | 374 ft | 21 kts | 257° |
| 2026-05-05 16:47 | 30.12112 | 31.42280 | 377 ft | 21 kts | 229° |
| 2026-05-05 16:47 | 30.12018 | 31.42154 | 376 ft | 21 kts | 230° |
| 2026-05-05 16:47 | 30.11924 | 31.42029 | 375 ft | 21 kts | 229° |
| 2026-05-05 16:48 | 30.11830 | 31.41904 | 378 ft | 21 kts | 229° |
| 2026-05-05 16:48 | 30.11736 | 31.41778 | 376 ft | 21 kts | 229° |
| 2026-05-05 16:48 | 30.11643 | 31.41653 | 379 ft | 21 kts | 228° |
| 2026-05-05 16:48 | 30.11549 | 31.41529 | 376 ft | 21 kts | 229° |
| 2026-05-05 16:49 | 30.11456 | 31.41405 | 378 ft | 21 kts | 228° |
| 2026-05-05 16:49 | 30.11361 | 31.41280 | 377 ft | 21 kts | 229° |
| 2026-05-05 16:49 | 30.11267 | 31.41155 | 378 ft | 21 kts | 229° |
| 2026-05-05 16:49 | 30.11174 | 31.41029 | 378 ft | 21 kts | 230° |
| 2026-05-05 16:50 | 30.11082 | 31.40903 | 378 ft | 21 kts | 229° |
| 2026-05-05 16:50 | 30.10986 | 31.40780 | 377 ft | 21 kts | 229° |
| 2026-05-05 16:50 | 30.10892 | 31.40656 | 380 ft | 21 kts | 229° |
| 2026-05-05 16:50 | 30.10799 | 31.40530 | 378 ft | 21 kts | 229° |
| 2026-05-05 16:51 | 30.10706 | 31.40408 | 379 ft | 19 kts | 229° |
| 2026-05-05 16:51 | 30.10697 | 31.40324 | 376 ft | 7 kts | 283° |
| 2026-05-05 16:51 | 30.10684 | 31.40229 | 373 ft | 21 kts | 243° |
| 2026-05-05 16:51 | 30.10570 | 31.40071 | 373 ft | 25 kts | 229° |
| 2026-05-05 16:52 | 30.10485 | 31.39934 | 370 ft | 19 kts | 262° |
| 2026-05-05 16:52 | 30.10561 | 31.39850 | 364 ft | 12 kts | 3° |
| 2026-05-05 16:52 | 30.10631 | 31.39912 | 365 ft | 14 kts | 48° |
| 2026-05-05 16:52 | 30.10716 | 31.40022 | 369 ft | 22 kts | 48° |
| 2026-05-05 16:53 | 30.10797 | 31.40113 | 367 ft | 15 kts | 27° |
| 2026-05-05 16:53 | 30.10892 | 31.40132 | 359 ft | 9 kts | 9° |
| 2026-05-05 16:53 | 30.10947 | 31.40108 | 357 ft | 7 kts | 300° |
| 2026-05-05 16:53 | 30.10955 | 31.40085 | 361 ft | 3 kts | 291° |
| 2026-05-05 16:54 | 30.10962 | 31.40061 | 358 ft | 3 kts | 289° |
| 2026-05-05 16:54 | 30.10967 | 31.40046 | 358 ft | 2 kts | 288° |
| 2026-05-05 16:54 | 30.10967 | 31.40044 | 358 ft | 0 kts | 288° |